Aérodrome :
LOGIN :

S'inscrire | Disclaimer

   EN    FR    IT 

 










Légende :    VFR   VFR Marginal   IFR   IFR Intensif   IFR Très Intensif
Visi : 
Plafond : 
>= 8 km
>= 3000ft
5 à 8 km
1000 à 3000 ft
1500m à 5 km
500 à 1000 ft
800 à 1500m
200 à 500 ft
< 800m
< 200 ft
Symboles :   Orages  Brouillard  Fortes neiges  Fortes précipitations  Vent > 20 kt
SIGMETs :   Divers  Orages  Givrage  Turbulence  Onde Orograph.  Cendres Volcan.






- Altitude de l'aérodrome : 124 ft
- Code IATA : AVN


LFMV - Avignon Caumont

DERNIER METAR :
  • 250700Z AUTO 14002KT 5000 BR BKN042 OVC048 08/07 Q1022 NOSIG

METARs EXPIRÉS :
  • 250630Z AUTO VRB03KT 7000 BKN039 OVC050 08/07 Q1022 NOSIG
  • 250600Z AUTO VRB01KT 9999 FEW031 BKN046 BKN052 08/06 Q1022 TEMPO 2000 RA BR
  • 250530Z AUTO 02002KT 9000 OVC032 08/07 Q1022 TEMPO 2000 RA BR
  • 250500Z AUTO 35004KT 280V060 9000 -RADZ BKN034 OVC040 09/07 Q1021 TEMPO 2000 RA BR
  • 250430Z AUTO 00000KT 9999 SCT037 BKN043 BKN049 08/07 Q1021 TEMPO 2000 RA BR

TAF AMD TAF LFMV
Valide du 25 à 07h jusqu'au 26 à 03h UTC


250715Z 2507/2603 VRB03KT 5000 BR BKN040
PROB40
TEMPO 2507/2510 1500 -DZ BR BKN005
BECMG 2510/2512 15010KT 9999 NSW SCT023 SCT033
TEMPO 2512/2518 SCT025 BKN040
BECMG 2518/2520 VRB03KT SCT025 BKN065
PROB40
TEMPO 2518/2520 VRB03KT 4000 -SHRA BR BKN020TCU
TEMPO 2520/2601 4000 BR BKN025
PROB40
TEMPO 2601/2603 3000 SHRA BR BKN020TCU
ATIS : +33 4 90 84 32 84



MET'MAP, la Météo Aéronautique d'un coup d'oeil ! - Copyright ORBIFLY Décembre 2007 - Disclaimer

ORBIFLY MET'MAP TEAM :

Programmation & Développement : Alexandra Zaïnal
Sur une idée originale de : Baudouin d'Aumeries
Assistance à la programmation : Marc-Olivier Méhu
Soutien technique & logistique : Manuel Goepfert

Contact : metmap@orbifly.com




SOURCES & CREDITS :

   NOAA